createdAt,value
2019-04-25T00:02:05.445Z,87.90
2019-04-25T00:04:38.672Z,88.00
2019-04-25T00:07:12.017Z,87.80
2019-04-25T00:09:51.718Z,88.70
2019-04-25T00:12:25.273Z,90.20
2019-04-25T00:14:57.818Z,89.70
2019-04-25T00:17:31.819Z,90.10
2019-04-25T00:20:07.110Z,90.20
2019-04-25T00:22:45.898Z,90.50
2019-04-25T00:25:45.393Z,90.50
2019-04-25T00:28:16.346Z,90.50
2019-04-25T00:30:48.464Z,91.00
2019-04-25T00:33:21.566Z,91.20
2019-04-25T00:35:53.698Z,91.20
2019-04-25T00:38:26.156Z,91.20
2019-04-25T00:40:58.318Z,91.20
2019-04-25T00:43:31.528Z,91.20
2019-04-25T00:46:03.676Z,91.40
2019-04-25T00:48:36.428Z,91.60
2019-04-25T00:51:08.859Z,91.70
2019-04-25T00:53:42.665Z,91.60
2019-04-25T00:56:14.603Z,91.70
2019-04-25T00:59:05.492Z,91.80
2019-04-25T01:01:59.363Z,92.40
2019-04-25T01:04:33.880Z,92.20
2019-04-25T01:07:05.836Z,92.50
2019-04-25T01:09:38.190Z,92.50
2019-04-25T01:12:11.650Z,92.60
2019-04-25T01:14:45.403Z,92.50
2019-04-25T01:17:17.660Z,92.50
2019-04-25T01:19:49.578Z,92.50
2019-04-25T01:22:23.160Z,92.50
2019-04-25T01:24:55.999Z,92.30
2019-04-25T01:27:28.144Z,92.40
2019-04-25T01:30:00.061Z,92.60
2019-04-25T01:32:36.912Z,92.70
2019-04-25T01:35:28.848Z,92.70
2019-04-25T01:38:19.730Z,93.10
2019-04-25T01:41:09.121Z,93.10
2019-04-25T01:43:53.128Z,93.40
2019-04-25T01:46:24.469Z,93.60
2019-04-25T01:48:56.854Z,93.80
2019-04-25T01:51:29.208Z,93.90
2019-04-25T01:54:01.598Z,94.00
2019-04-25T01:56:33.830Z,94.10
2019-04-25T01:59:06.085Z,94.40
2019-04-25T02:01:40.069Z,94.30
2019-04-25T02:04:13.215Z,94.30
2019-04-25T02:06:45.223Z,94.20
2019-04-25T02:09:17.813Z,94.00
2019-04-25T02:12:15.499Z,93.90
2019-04-25T02:14:48.386Z,94.00
2019-04-25T02:17:20.477Z,94.00
2019-04-25T02:19:54.546Z,94.00
2019-04-25T02:22:26.550Z,94.00
2019-04-25T02:24:59.029Z,94.30
2019-04-25T02:27:30.946Z,94.60
2019-04-25T02:30:04.337Z,94.60
2019-04-25T02:32:37.102Z,94.40
2019-04-25T02:35:10.351Z,94.10
2019-04-25T02:37:42.355Z,94.20
2019-04-25T02:40:17.867Z,94.60
2019-04-25T02:42:49.804Z,94.80
2019-04-25T02:45:40.725Z,95.10
2019-04-25T02:48:30.175Z,95.20
2019-04-25T02:51:08.469Z,95.20
2019-04-25T02:53:44.709Z,95.20
2019-04-25T02:56:29.887Z,95.30
2019-04-25T02:58:50.755Z,95.50
2019-04-25T03:01:26.129Z,95.50
2019-04-25T03:03:57.951Z,95.30
2019-04-25T03:06:31.944Z,95.30
2019-04-25T03:09:06.454Z,95.30
2019-04-25T03:11:38.009Z,95.40
2019-04-25T03:14:10.542Z,95.50
2019-04-25T03:16:44.854Z,95.50
2019-04-25T03:19:34.420Z,95.50
2019-04-25T03:22:11.040Z,95.50
2019-04-25T03:24:41.656Z,95.40
2019-04-25T03:27:14.332Z,95.50
2019-04-25T03:29:46.256Z,95.00
2019-04-25T03:32:19.815Z,95.10
2019-04-25T03:34:53.130Z,95.40
2019-04-25T03:37:26.618Z,95.70
2019-04-25T03:39:58.658Z,95.60
2019-04-25T03:42:30.746Z,95.30
2019-04-25T03:45:04.696Z,95.40
2019-04-25T03:47:37.024Z,95.60
2019-04-25T03:50:09.868Z,96.20
2019-04-25T03:52:43.599Z,96.70
2019-04-25T03:55:15.890Z,97.30
2019-04-25T03:57:47.848Z,97.20
2019-04-25T04:00:19.869Z,97.30
2019-04-25T04:02:51.818Z,97.40
2019-04-25T04:05:23.844Z,97.90
2019-04-25T04:07:55.793Z,97.80
2019-04-25T04:10:28.352Z,97.70
2019-04-25T04:13:00.762Z,97.90
2019-04-25T04:15:33.525Z,97.90
2019-04-25T04:18:20.099Z,97.90
2019-04-25T04:21:16.210Z,97.70
2019-04-25T04:24:06.471Z,97.50
2019-04-25T04:26:38.553Z,97.30
2019-04-25T04:29:10.526Z,97.40
2019-04-25T04:31:43.135Z,97.30
2019-04-25T04:34:15.630Z,97.30
2019-04-25T04:36:47.574Z,97.40
2019-04-25T04:39:19.531Z,97.40
2019-04-25T04:41:51.506Z,97.20
2019-04-25T04:44:24.176Z,97.20
2019-04-25T04:46:56.477Z,97.20
2019-04-25T04:49:31.628Z,97.50
2019-04-25T04:52:04.525Z,97.50
2019-04-25T04:54:37.508Z,97.70
2019-04-25T04:57:26.093Z,98.00
2019-04-25T04:59:43.968Z,98.10
2019-04-25T05:02:40.982Z,98.20
2019-04-25T05:05:34.301Z,98.10
2019-04-25T05:08:12.981Z,97.80
2019-04-25T05:10:45.994Z,97.80
2019-04-25T05:13:18.337Z,98.40
2019-04-25T05:15:50.278Z,98.40
2019-04-25T05:18:34.595Z,98.60
2019-04-25T05:20:56.163Z,98.80
2019-04-25T05:23:28.925Z,99.00
2019-04-25T05:26:00.876Z,98.70
2019-04-25T05:28:33.481Z,98.70
2019-04-25T05:31:19.591Z,98.60
2019-04-25T05:33:53.506Z,98.60
2019-04-25T05:36:29.302Z,98.40
2019-04-25T05:39:01.263Z,98.40
2019-04-25T05:41:39.682Z,98.30
2019-04-25T05:44:11.623Z,98.10
2019-04-25T05:46:45.318Z,98.00
2019-04-25T05:49:17.816Z,98.10
2019-04-25T05:51:50.642Z,97.90
2019-04-25T05:54:24.492Z,97.70
2019-04-25T05:56:56.739Z,97.60
2019-04-25T05:59:28.774Z,97.30
2019-04-25T06:02:01.165Z,97.20
2019-04-25T06:04:33.593Z,96.30
2019-04-25T06:07:05.805Z,95.60
2019-04-25T06:09:56.574Z,95.50
2019-04-25T06:12:49.418Z,94.90
2019-04-25T06:15:24.892Z,94.60
2019-04-25T06:18:21.552Z,93.90
2019-04-25T06:20:55.561Z,94.00
2019-04-25T06:23:54.432Z,93.50
2019-04-25T06:26:35.074Z,93.50
2019-04-25T06:29:01.177Z,92.70
2019-04-25T06:31:34.192Z,92.80
2019-04-25T06:34:06.787Z,92.80
2019-04-25T06:36:38.872Z,92.00
2019-04-25T06:39:11.840Z,92.00
2019-04-25T06:41:44.346Z,91.80
2019-04-25T06:44:34.431Z,91.60
2019-04-25T06:47:26.712Z,91.30
2019-04-25T06:49:59.755Z,91.30
2019-04-25T06:52:33.793Z,91.00
2019-04-25T06:55:07.260Z,91.20
2019-04-25T06:57:39.669Z,90.60
2019-04-25T07:00:14.172Z,90.70
2019-04-25T07:02:46.259Z,90.20
2019-04-25T07:05:31.009Z,90.20
2019-04-25T07:07:54.802Z,90.60
2019-04-25T07:10:27.506Z,90.10
2019-04-25T07:13:00.127Z,85.50
2019-04-25T07:15:34.106Z,83.90
2019-04-25T07:18:06.989Z,84.60
2019-04-25T07:20:39.264Z,83.10
2019-04-25T07:23:11.474Z,80.20
2019-04-25T07:25:50.035Z,80.30
2019-04-25T07:28:50.387Z,80.60
2019-04-25T07:31:41.261Z,80.00
2019-04-25T07:34:17.555Z,77.50
2019-04-25T07:36:50.113Z,78.40
2019-04-25T07:39:23.608Z,78.00
2019-04-25T07:41:56.680Z,77.30
2019-04-25T07:44:44.267Z,78.30
2019-04-25T07:47:04.040Z,74.00
2019-04-25T07:49:36.105Z,72.60
2019-04-25T07:52:08.248Z,74.70
2019-04-25T07:54:40.992Z,70.70
2019-04-25T07:57:13.655Z,71.30
2019-04-25T07:59:45.807Z,69.00
2019-04-25T08:02:18.126Z,69.30
2019-04-25T08:04:50.627Z,68.10
2019-04-25T08:07:24.057Z,68.90
2019-04-25T08:09:56.883Z,67.30
2019-04-25T08:12:29.001Z,66.20
2019-04-25T08:15:09.354Z,63.40
2019-04-25T08:18:00.494Z,60.10
2019-04-25T08:20:34.449Z,57.90
2019-04-25T08:23:08.346Z,59.30
2019-04-25T08:25:40.865Z,55.60
2019-04-25T08:28:13.772Z,57.80
2019-04-25T08:30:45.950Z,56.40
2019-04-25T08:33:18.155Z,56.10
2019-04-25T08:36:04.318Z,56.10
2019-04-25T08:38:24.297Z,55.40
2019-04-25T08:40:57.067Z,56.50
2019-04-25T08:43:29.994Z,51.10
2019-04-25T08:46:04.226Z,54.10
2019-04-25T08:48:55.203Z,53.70
2019-04-25T08:51:31.430Z,50.90
2019-04-25T08:54:13.823Z,50.60
2019-04-25T08:56:46.946Z,47.40
2019-04-25T08:59:42.386Z,46.20
2019-04-25T09:02:24.244Z,46.40
2019-04-25T09:05:14.457Z,44.30
2019-04-25T09:07:47.507Z,43.80
2019-04-25T09:10:20.066Z,41.90
2019-04-25T09:12:53.681Z,43.30
2019-04-25T09:15:26.067Z,42.40
2019-04-25T09:17:59.566Z,41.10
2019-04-25T09:20:31.678Z,40.50
2019-04-25T09:23:04.911Z,39.20
2019-04-25T09:25:37.387Z,39.90
2019-04-25T09:28:09.800Z,39.00
2019-04-25T09:30:42.989Z,39.30
2019-04-25T09:33:19.042Z,39.20
2019-04-25T09:35:51.153Z,40.30
2019-04-25T09:38:24.400Z,39.50
2019-04-25T09:40:57.635Z,38.70
2019-04-25T09:43:30.240Z,39.20
2019-04-25T09:46:10.067Z,39.60
2019-04-25T09:48:54.699Z,39.80
2019-04-25T09:51:30.163Z,40.30
2019-04-25T09:54:15.475Z,40.20
2019-04-25T09:56:49.576Z,38.70
2019-04-25T09:59:28.076Z,38.80
2019-04-25T10:01:58.647Z,39.30
2019-04-25T10:04:31.065Z,41.00
2019-04-25T10:07:03.957Z,39.90
2019-04-25T10:09:37.504Z,40.70
2019-04-25T10:12:09.724Z,41.70
2019-04-25T10:15:04.463Z,41.70
2019-04-25T10:17:37.738Z,41.00
2019-04-25T10:20:10.563Z,43.00
2019-04-25T10:22:44.558Z,40.40
2019-04-25T10:25:19.324Z,41.50
2019-04-25T10:27:52.004Z,41.30
2019-04-25T10:30:26.018Z,42.20
2019-04-25T10:32:58.728Z,43.10
2019-04-25T10:35:34.220Z,42.70
2019-04-25T10:38:05.653Z,42.50
2019-04-25T10:40:38.496Z,39.60
2019-04-25T10:43:11.905Z,40.80
2019-04-25T10:45:45.980Z,40.70
2019-04-25T10:48:19.387Z,40.10
2019-04-25T10:50:55.692Z,41.90
2019-04-25T10:53:28.660Z,41.20
2019-04-25T10:56:01.426Z,40.70
2019-04-25T10:58:35.297Z,40.60
2019-04-25T11:01:07.931Z,40.00
2019-04-25T11:04:10.671Z,40.70
2019-04-25T11:06:45.331Z,38.90
2019-04-25T11:09:28.483Z,40.60
2019-04-25T11:12:01.843Z,41.40
2019-04-25T11:14:34.390Z,41.10
2019-04-25T11:17:06.766Z,40.40
2019-04-25T11:19:38.803Z,41.10
2019-04-25T11:22:11.182Z,40.50
2019-04-25T11:24:43.795Z,41.40
2019-04-25T11:27:16.255Z,40.40
2019-04-25T11:29:48.596Z,40.60
2019-04-25T11:32:23.802Z,37.30
2019-04-25T11:34:56.099Z,38.30
2019-04-25T11:37:30.531Z,38.60
2019-04-25T11:40:15.071Z,37.60
2019-04-25T11:42:48.226Z,39.50
2019-04-25T11:45:20.718Z,40.00
2019-04-25T11:47:54.395Z,39.90
2019-04-25T11:50:26.934Z,39.10
2019-04-25T11:52:59.010Z,39.10
2019-04-25T11:55:32.271Z,37.00
2019-04-25T11:58:05.222Z,35.50
2019-04-25T12:00:37.989Z,35.70
2019-04-25T12:03:10.390Z,35.40
2019-04-25T12:05:45.454Z,36.70
2019-04-25T12:08:16.857Z,37.60
2019-04-25T12:10:49.456Z,36.90
2019-04-25T12:13:24.241Z,36.40
2019-04-25T12:15:56.856Z,36.70
2019-04-25T12:18:28.938Z,35.90
2019-04-25T12:21:01.607Z,36.20
2019-04-25T12:23:33.995Z,37.20
2019-04-25T12:26:06.646Z,37.00
2019-04-25T12:28:38.931Z,36.50
2019-04-25T12:31:11.045Z,36.90
2019-04-25T12:33:46.342Z,35.90
2019-04-25T12:36:17.707Z,36.20
2019-04-25T12:38:49.839Z,36.80
2019-04-25T12:41:22.372Z,37.20
2019-04-25T12:44:11.863Z,37.40
2019-04-25T12:46:46.278Z,36.20
2019-04-25T12:49:18.697Z,36.60
2019-04-25T12:51:50.911Z,38.40
2019-04-25T12:54:23.856Z,36.80
2019-04-25T12:56:57.209Z,37.50
2019-04-25T12:59:30.046Z,36.50
2019-04-25T13:02:04.465Z,37.00
2019-04-25T13:04:36.291Z,36.00
2019-04-25T13:07:09.110Z,35.60
2019-04-25T13:09:41.202Z,33.20
2019-04-25T13:12:14.955Z,33.10
2019-04-25T13:14:47.322Z,33.80
2019-04-25T13:17:19.530Z,34.70
2019-04-25T13:19:51.618Z,36.10
2019-04-25T13:22:23.912Z,33.50
2019-04-25T13:24:56.349Z,33.40
2019-04-25T13:27:47.587Z,32.50
2019-04-25T13:30:59.614Z,33.50
2019-04-25T13:33:46.019Z,33.60
2019-04-25T13:36:19.461Z,34.00
2019-04-25T13:38:51.717Z,35.50
2019-04-25T13:41:24.976Z,35.50
2019-04-25T13:43:57.745Z,35.00
2019-04-25T13:46:30.025Z,35.50
2019-04-25T13:49:02.148Z,36.60
2019-04-25T13:51:34.983Z,36.30
2019-04-25T13:54:07.311Z,37.30
2019-04-25T13:56:40.693Z,37.50
2019-04-25T13:59:13.053Z,39.40
2019-04-25T14:01:45.154Z,38.40
2019-04-25T14:04:17.928Z,37.30
2019-04-25T14:06:49.993Z,39.90
2019-04-25T14:09:24.544Z,36.80
2019-04-25T14:11:57.230Z,37.00
2019-04-25T14:14:30.226Z,39.10
2019-04-25T14:17:24.763Z,39.80
2019-04-25T14:20:32.671Z,37.80
2019-04-25T14:23:07.412Z,39.50
2019-04-25T14:25:40.042Z,38.50
2019-04-25T14:28:14.072Z,39.20
2019-04-25T14:30:46.577Z,39.10
2019-04-25T14:33:18.991Z,40.10
2019-04-25T14:35:54.629Z,40.10
2019-04-25T14:38:26.598Z,40.10
2019-04-25T14:41:00.252Z,39.30
2019-04-25T14:43:32.476Z,40.00
2019-04-25T14:46:05.479Z,40.40
2019-04-25T14:48:37.972Z,39.60
2019-04-25T14:51:10.840Z,41.10
2019-04-25T14:53:43.523Z,40.20
2019-04-25T14:56:49.648Z,41.50
2019-04-25T14:59:23.601Z,41.20
2019-04-25T15:01:56.860Z,41.40
2019-04-25T15:04:30.118Z,42.70
2019-04-25T15:07:03.042Z,41.90
2019-04-25T15:09:35.400Z,40.60
2019-04-25T15:12:07.619Z,41.00
2019-04-25T15:14:40.032Z,42.90
2019-04-25T15:17:13.250Z,40.30
2019-04-25T15:19:46.768Z,40.30
2019-04-25T15:22:19.327Z,40.10
2019-04-25T15:24:51.395Z,40.10
2019-04-25T15:27:24.139Z,39.30
2019-04-25T15:29:58.057Z,39.50
2019-04-25T15:32:33.422Z,39.50
2019-04-25T15:35:07.621Z,39.50
2019-04-25T15:37:48.933Z,39.50
2019-04-25T15:40:27.666Z,41.80
2019-04-25T15:43:34.442Z,41.90
2019-04-25T15:46:32.311Z,40.80
2019-04-25T15:49:04.630Z,40.30
2019-04-25T15:51:37.641Z,40.70
2019-04-25T15:54:11.439Z,40.50
2019-04-25T15:56:45.034Z,40.10
2019-04-25T15:59:17.536Z,40.80
2019-04-25T16:01:50.038Z,41.50
2019-04-25T16:04:22.151Z,40.20
2019-04-25T16:06:55.424Z,39.70
2019-04-25T16:09:29.662Z,40.80
2019-04-25T16:12:02.264Z,40.20
2019-04-25T16:14:35.597Z,42.00
2019-04-25T16:17:07.814Z,40.90
2019-04-25T16:19:39.937Z,41.80
2019-04-25T16:22:11.942Z,43.50
2019-04-25T16:24:45.369Z,42.40
2019-04-25T16:27:18.275Z,43.20
2019-04-25T16:29:50.491Z,43.80
2019-04-25T16:32:24.537Z,43.10
2019-04-25T16:34:56.651Z,43.10
2019-04-25T16:37:30.099Z,44.50
2019-04-25T16:40:02.745Z,44.30
2019-04-25T16:42:35.935Z,43.30
2019-04-25T16:45:09.425Z,44.80
2019-04-25T16:47:41.895Z,46.60
2019-04-25T16:50:14.801Z,47.90
2019-04-25T16:52:47.291Z,49.40
2019-04-25T16:55:20.006Z,49.00
2019-04-25T16:57:52.079Z,49.70
2019-04-25T17:00:41.908Z,50.90
2019-04-25T17:03:14.223Z,50.00
2019-04-25T17:05:47.414Z,50.00
2019-04-25T17:08:19.896Z,48.00
2019-04-25T17:10:52.010Z,48.90
2019-04-25T17:13:26.082Z,48.90
2019-04-25T17:16:29.570Z,49.60
2019-04-25T17:19:06.689Z,49.00
2019-04-25T17:21:39.463Z,49.70
2019-04-25T17:24:11.552Z,50.20
2019-04-25T17:26:44.087Z,50.60
2019-04-25T17:29:20.003Z,51.70
2019-04-25T17:32:16.210Z,53.10
2019-04-25T17:34:59.337Z,55.40
2019-04-25T17:37:38.452Z,55.60
2019-04-25T17:40:14.661Z,56.20
2019-04-25T17:42:46.805Z,56.30
2019-04-25T17:45:23.572Z,57.50
2019-04-25T17:47:55.771Z,57.60
2019-04-25T17:50:27.890Z,57.20
2019-04-25T17:53:00.856Z,57.10
2019-04-25T17:55:33.713Z,56.50
2019-04-25T17:58:06.252Z,56.60
2019-04-25T18:00:40.441Z,56.60
2019-04-25T18:03:13.365Z,56.70
2019-04-25T18:05:46.057Z,56.20
2019-04-25T18:08:18.631Z,55.40
2019-04-25T18:10:51.108Z,55.80
2019-04-25T18:13:23.785Z,54.70
2019-04-25T18:16:05.402Z,54.50
2019-04-25T18:18:47.178Z,55.50
2019-04-25T18:21:19.306Z,55.90
2019-04-25T18:24:08.996Z,56.40
2019-04-25T18:26:49.837Z,55.60
2019-04-25T18:29:22.765Z,54.60
2019-04-25T18:31:55.091Z,54.80
2019-04-25T18:34:33.131Z,53.10
2019-04-25T18:37:23.441Z,53.50
2019-04-25T18:40:04.481Z,52.70
2019-04-25T18:43:14.279Z,53.00
2019-04-25T18:45:50.791Z,55.10
2019-04-25T18:48:23.892Z,51.70
2019-04-25T18:50:56.863Z,49.60
2019-04-25T18:53:50.903Z,48.90
2019-04-25T18:56:33.971Z,49.30
2019-04-25T18:59:43.988Z,48.90
2019-04-25T19:02:36.252Z,49.90
2019-04-25T19:05:27.769Z,52.60
2019-04-25T19:08:12.610Z,50.90
2019-04-25T19:10:45.111Z,55.80
2019-04-25T19:13:18.273Z,58.10
2019-04-25T19:15:51.520Z,60.40
2019-04-25T19:18:24.252Z,60.80
2019-04-25T19:20:56.724Z,64.00
2019-04-25T19:23:29.767Z,63.50
2019-04-25T19:26:01.846Z,63.60
2019-04-25T19:28:34.703Z,63.40
2019-04-25T19:31:07.217Z,64.50
2019-04-25T19:33:40.666Z,66.30
2019-04-25T19:36:19.130Z,68.60
2019-04-25T19:38:50.477Z,71.00
2019-04-25T19:41:45.025Z,64.70
2019-04-25T19:44:21.585Z,60.50
2019-04-25T19:46:54.582Z,59.60
2019-04-25T19:49:27.378Z,56.20
2019-04-25T19:51:59.899Z,53.80
2019-04-25T19:54:32.040Z,52.90
2019-04-25T19:57:04.876Z,51.70
2019-04-25T19:59:38.238Z,50.90
2019-04-25T20:02:17.605Z,49.90
2019-04-25T20:04:58.074Z,48.90
2019-04-25T20:07:49.519Z,48.60
2019-04-25T20:10:42.804Z,47.80
2019-04-25T20:13:16.628Z,47.30
2019-04-25T20:15:49.548Z,46.90
2019-04-25T20:18:22.785Z,46.80
2019-04-25T20:20:57.035Z,46.60
2019-04-25T20:23:30.054Z,47.20
2019-04-25T20:26:02.618Z,48.40
2019-04-25T20:28:35.469Z,50.80
2019-04-25T20:31:07.996Z,48.90
2019-04-25T20:33:40.318Z,47.80
2019-04-25T20:36:17.965Z,46.60
2019-04-25T20:38:47.201Z,47.10
2019-04-25T20:41:19.782Z,45.90
2019-04-25T20:43:52.877Z,46.00
2019-04-25T20:46:25.030Z,46.00
2019-04-25T20:48:57.110Z,45.60
2019-04-25T20:51:29.649Z,45.80
2019-04-25T20:54:02.158Z,46.90
2019-04-25T20:56:34.274Z,54.50
2019-04-25T20:59:06.442Z,57.40
2019-04-25T21:01:38.974Z,61.40
2019-04-25T21:04:29.790Z,64.50
2019-04-25T21:07:02.912Z,67.20
2019-04-25T21:09:34.980Z,68.00
2019-04-25T21:12:07.754Z,69.90
2019-04-25T21:14:52.814Z,71.50
2019-04-25T21:17:46.728Z,72.50
2019-04-25T21:20:19.229Z,73.50
2019-04-25T21:22:53.732Z,74.20
2019-04-25T21:25:26.227Z,75.20
2019-04-25T21:27:59.527Z,75.70
2019-04-25T21:30:32.043Z,76.30
2019-04-25T21:33:04.673Z,71.00
2019-04-25T21:35:37.792Z,68.90
2019-04-25T21:38:09.915Z,66.10
2019-04-25T21:40:59.936Z,66.20
2019-04-25T21:43:36.748Z,69.40
2019-04-25T21:46:09.142Z,70.80
2019-04-25T21:48:41.775Z,71.30
2019-04-25T21:51:32.550Z,71.90
2019-04-25T21:54:05.732Z,72.30
2019-04-25T21:56:38.003Z,73.30
2019-04-25T21:59:10.429Z,74.20
2019-04-25T22:01:44.352Z,75.00
2019-04-25T22:04:16.470Z,75.30
2019-04-25T22:06:49.173Z,75.80
2019-04-25T22:09:23.043Z,75.70
2019-04-25T22:11:56.346Z,75.80
2019-04-25T22:14:29.442Z,74.10
2019-04-25T22:17:01.936Z,73.30
2019-04-25T22:19:34.228Z,70.90
2019-04-25T22:22:06.904Z,71.90
2019-04-25T22:24:39.794Z,73.20
2019-04-25T22:27:18.463Z,75.10
2019-04-25T22:29:58.795Z,75.70
2019-04-25T22:32:57.121Z,77.70
2019-04-25T22:35:59.336Z,78.50
2019-04-25T22:38:31.954Z,81.20
2019-04-25T22:41:04.175Z,81.50
2019-04-25T22:43:38.640Z,81.60
2019-04-25T22:46:10.908Z,81.80
2019-04-25T22:48:49.306Z,82.30
2019-04-25T22:51:21.417Z,82.60
2019-04-25T22:53:53.695Z,82.80
2019-04-25T22:56:26.670Z,83.20
2019-04-25T22:58:59.172Z,83.50
2019-04-25T23:01:49.870Z,83.60
2019-04-25T23:04:34.574Z,83.70
2019-04-25T23:07:06.688Z,84.00
2019-04-25T23:09:39.590Z,84.20
2019-04-25T23:12:12.692Z,84.70
2019-04-25T23:14:45.043Z,84.80
2019-04-25T23:17:17.153Z,85.00
2019-04-25T23:19:50.165Z,85.10
2019-04-25T23:22:22.274Z,85.10
2019-04-25T23:24:59.758Z,84.60
2019-04-25T23:27:49.294Z,84.80
2019-04-25T23:30:23.743Z,85.00
2019-04-25T23:32:55.866Z,85.00
2019-04-25T23:35:31.194Z,85.00
2019-04-25T23:38:02.007Z,85.20
2019-04-25T23:40:34.658Z,85.30
2019-04-25T23:43:07.521Z,85.40
2019-04-25T23:45:39.951Z,85.80
2019-04-25T23:48:12.436Z,85.90
2019-04-25T23:50:44.455Z,85.90
2019-04-25T23:53:17.106Z,85.80
2019-04-25T23:55:49.269Z,86.00
2019-04-25T23:58:21.792Z,85.90
